CEN3 weather

Three Hills Airport
Three Hills, Alberta, Canada

Public forecast

Using degrees Celsius for public forecast. Weather courtesy of forecast.io.

Closest aviation weather report (METAR) to Three Hills Airport

Closest report is Red Deer Regional Airport, 38.6 nm (71.5 km) NW. Retrieved 2020/04/04 05:00 UTC (32 minutes ago):

CYQF 040500Z 03008KT 12SM -SN OVC030 M11/M13 A2994 RMK SC8 SLP203

Closest aviation forecast (TAF) to Three Hills Airport

Closest forecast is Red Deer Regional Airport, 38.6 nm (71.5 km) NW. Retrieved 2020-04-04 00:39 UTC (5 hours ago):

TAF CYQF 032338Z 0400/0412 VRB03KT P6SM OVC030 TEMPO 0400/0406 4SM -SN OVC020 FM040600 35006KT P6SM -SN OVC020 TEMPO 0406/0412 2SM -SN OVC008 RMK NXT FCST BY 040600Z